Tropical Cyclones
[Index]
Main Index Home Page Stock Weather Photos Extreme Storms Discussion Storm News and Storm Chasing Reports Tropical Cyclones / Hurricanes / Typhoons Weather Data and Links Wild Fires / Bushfires Weather Observation Techniques Weather Picture Catalogue Tornado Pictures and Reports Stock Video Footage and DVDs for sale
Season 2008-2009 Tropical Cyclone KIRRILY Track Map
Season 2008-2009 Summaries: [BoM-AU] [JTWC-AU] [JTWC-SIO] [JTWC-SPAC] [JTWC-SH]
<<- Previous TC | JTWC 2008-2009 Season | Next TC ->>

click for intensity scale information  Lat/long Grid: Show Hide

 Date Labels: Show Hide

Joint Typhoon Warning Centre Cyclone Data

Name: KIRRILY

23 Apr 2009 06:00 UTC to 29 Apr 2009 00:00 UTC

    date/time    lat    long     hPa   cat  kts
2009-04-23 06    7.6   132.8    1010         15          
2009-04-23 12    8.2   132.8    1010         15          
2009-04-23 18    8.7   132.9    1010         15          
2009-04-24 00    9.0   133.1    1010         15          
2009-04-24 06    9.3   133.4    1010         15          
2009-04-24 12    9.3   134.0    1010         15          
2009-04-24 18    9.1   134.8    1007         20          
2009-04-25 00    8.4   135.2    1004         25          
2009-04-25 06    8.1   135.7    1004         25          
2009-04-25 12    7.9   135.9    1004         25          
2009-04-25 18    7.9   136.1    1004         25          
2009-04-25 21    8.1   136.1    1004         25          
2009-04-26 00    8.0   135.9    1000         30          
2009-04-26 06    7.6   135.3    1000         30          
2009-04-26 12    7.4   134.9    1000         30          
2009-04-26 18    7.2   134.5     996         35          
2009-04-27 00    6.8   134.4     996         35          
2009-04-27 06    6.3   134.1     989    1    45          
2009-04-27 12    6.1   133.9     989    1    45          
2009-04-27 18    6.2   133.6     996         35          
2009-04-28 00    6.1   133.4     996         35          
2009-04-28 06    6.0   133.1     996         35          
2009-04-28 12    5.6   133.0    1000         30          
2009-04-28 18    5.3   132.8    1000         30          
2009-04-29 00    5.6   132.7    1007         20          
Winds are 1-min average.

Tropical cyclone tracks developed by Michael Bath using data from the Joint Typhoon Warning Centre Best Tracks and Google Maps.


[Australian Severe Weather index] [Copyright Notice] [Email Contacts] [Search This Site] [Privacy Policy]
Document: tropical_cyclone_kirrily.htm Updated: 28 June 2017